createdAt,value
2022-09-06T00:01:23.349Z,2.65
2022-09-06T00:03:50.871Z,2.88
2022-09-06T00:06:20.445Z,3.85
2022-09-06T00:08:48.488Z,2.80
2022-09-06T00:11:16.676Z,3.30
2022-09-06T00:13:43.817Z,2.95
2022-09-06T00:16:14.221Z,2.80
2022-09-06T00:18:42.211Z,2.85
2022-09-06T00:21:35.719Z,3.30
2022-09-06T00:24:03.826Z,2.65
2022-09-06T00:26:30.608Z,3.28
2022-09-06T00:31:26.480Z,2.97
2022-09-06T00:33:53.745Z,3.33
2022-09-06T00:36:21.755Z,3.50
2022-09-06T00:38:48.588Z,3.30
2022-09-06T00:41:16.545Z,2.55
2022-09-06T00:43:43.588Z,2.85
2022-09-06T00:46:15.685Z,3.00
2022-09-06T00:48:44.552Z,2.72
2022-09-06T00:51:13.658Z,2.72
2022-09-06T00:53:41.531Z,3.08
2022-09-06T00:56:08.637Z,2.78
2022-09-06T00:58:36.186Z,3.05
2022-09-06T01:01:03.503Z,2.40
2022-09-06T01:03:30.514Z,2.88
2022-09-06T01:06:14.489Z,2.45
2022-09-06T01:08:50.202Z,3.10
2022-09-06T01:11:30.236Z,2.80
2022-09-06T01:14:02.756Z,2.70
2022-09-06T01:16:38.789Z,2.47
2022-09-06T01:19:24.169Z,2.35
2022-09-06T01:22:20.734Z,3.05
2022-09-06T01:24:59.348Z,2.78
2022-09-06T01:27:59.578Z,2.50
2022-09-06T01:30:26.555Z,2.80
2022-09-06T01:33:00.173Z,2.65
2022-09-06T01:35:37.920Z,3.08
2022-09-06T01:38:05.856Z,2.20
2022-09-06T01:40:36.325Z,2.17
2022-09-06T01:43:10.623Z,2.55
2022-09-06T01:45:56.347Z,2.35
2022-09-06T01:48:35.199Z,2.67
2022-09-06T01:51:24.417Z,2.25
2022-09-06T01:54:09.341Z,2.65
2022-09-06T01:56:52.709Z,2.67
2022-09-06T01:59:28.213Z,2.50
2022-09-06T02:02:16.379Z,3.00
2022-09-06T02:04:51.137Z,2.63
2022-09-06T02:07:25.968Z,2.90
2022-09-06T02:10:12.895Z,2.88
2022-09-06T02:12:42.186Z,3.27
2022-09-06T02:15:19.643Z,2.67
2022-09-06T02:17:54.556Z,2.97
2022-09-06T02:20:26.512Z,2.50
2022-09-06T02:22:57.424Z,2.95
2022-09-06T02:25:30.074Z,2.65
2022-09-06T02:27:56.975Z,3.20
2022-09-06T02:30:23.802Z,2.65
2022-09-06T02:33:03.940Z,3.03
2022-09-06T02:35:31.088Z,2.55
2022-09-06T02:37:57.967Z,2.60
2022-09-06T02:40:24.858Z,3.58
2022-09-06T02:42:51.646Z,3.22
2022-09-06T02:47:44.933Z,3.70
2022-09-06T02:50:13.154Z,4.70
2022-09-06T02:52:39.908Z,5.50
2022-09-06T02:57:33.816Z,4.47
2022-09-06T03:02:27.209Z,3.92
2022-09-06T03:04:54.007Z,4.97
2022-09-06T03:09:47.261Z,5.40
2022-09-06T03:12:14.097Z,5.18
2022-09-06T03:14:41.406Z,4.28
2022-09-06T03:17:08.181Z,4.03
2022-09-06T03:22:01.668Z,4.88
2022-09-06T03:24:28.321Z,4.90
2022-09-06T03:26:55.075Z,5.90
2022-09-06T03:31:48.358Z,5.53
2022-09-06T03:34:15.024Z,4.97
2022-09-06T03:39:08.396Z,4.80
2022-09-06T03:41:35.118Z,4.63
2022-09-06T03:46:30.707Z,6.88
2022-09-06T03:48:58.063Z,5.13
2022-09-06T03:51:25.082Z,4.90
2022-09-06T03:53:51.854Z,4.95
2022-09-06T03:58:45.464Z,5.45
2022-09-06T04:03:39.531Z,4.72
2022-09-06T04:06:07.662Z,5.30
2022-09-06T04:08:35.367Z,4.88
2022-09-06T04:11:02.240Z,4.45
2022-09-06T04:13:30.065Z,4.50
2022-09-06T04:15:57.263Z,5.68
2022-09-06T04:18:24.209Z,4.97
2022-09-06T04:20:52.612Z,5.10
2022-09-06T04:23:20.207Z,4.78
2022-09-06T04:25:52.662Z,4.63
2022-09-06T04:28:20.687Z,5.13
2022-09-06T04:31:03.266Z,3.88
2022-09-06T04:33:32.533Z,5.10
2022-09-06T04:36:01.373Z,4.25
2022-09-06T04:38:30.199Z,4.20
2022-09-06T04:40:57.130Z,5.03
2022-09-06T04:43:24.082Z,3.97
2022-09-06T04:45:50.916Z,3.92
2022-09-06T04:48:17.696Z,4.13
2022-09-06T04:53:11.176Z,4.15
2022-09-06T04:58:05.672Z,4.18
2022-09-06T05:00:34.064Z,4.63
2022-09-06T05:03:00.829Z,5.03
2022-09-06T05:07:55.315Z,4.30
2022-09-06T05:10:23.271Z,4.28
2022-09-06T05:12:51.582Z,3.42
2022-09-06T05:15:19.989Z,4.00
2022-09-06T05:17:46.782Z,4.28
2022-09-06T05:22:41.539Z,4.60
2022-09-06T05:25:09.864Z,4.03
2022-09-06T05:27:36.784Z,3.97
2022-09-06T05:30:04.575Z,4.18
2022-09-06T05:32:31.387Z,3.55
2022-09-06T05:37:24.950Z,3.75
2022-09-06T05:39:51.940Z,3.53
2022-09-06T05:42:19.499Z,3.72
2022-09-06T05:44:46.759Z,4.22
2022-09-06T05:47:14.249Z,3.67
2022-09-06T05:49:41.495Z,3.60
2022-09-06T05:52:09.231Z,4.05
2022-09-06T05:54:36.155Z,3.90
2022-09-06T05:57:03.225Z,3.78
2022-09-06T05:59:30.705Z,3.28
2022-09-06T06:01:57.713Z,3.50
2022-09-06T06:04:24.621Z,3.22
2022-09-06T06:09:18.407Z,4.10
2022-09-06T06:11:45.291Z,4.20
2022-09-06T06:14:12.054Z,5.30
2022-09-06T06:19:05.580Z,3.70
2022-09-06T06:24:04.541Z,4.72
2022-09-06T06:26:34.157Z,3.72
2022-09-06T06:29:03.977Z,3.55
2022-09-06T06:31:32.488Z,3.63
2022-09-06T06:33:59.737Z,3.70
2022-09-06T06:36:30.591Z,4.60
2022-09-06T06:38:58.257Z,3.80
2022-09-06T06:41:27.366Z,3.78
2022-09-06T06:43:54.765Z,3.92
2022-09-06T06:46:23.163Z,4.20
2022-09-06T06:48:54.125Z,4.03
2022-09-06T06:51:23.448Z,5.13
2022-09-06T06:53:50.516Z,4.50
2022-09-06T06:56:26.666Z,5.15
2022-09-06T06:58:55.851Z,4.40
2022-09-06T07:01:23.282Z,5.07
2022-09-06T07:03:50.846Z,5.43
2022-09-06T07:06:18.734Z,4.78
2022-09-06T07:08:46.475Z,4.00
2022-09-06T07:11:15.594Z,3.63
2022-09-06T07:13:42.714Z,3.80
2022-09-06T07:16:09.638Z,3.20
2022-09-06T07:18:37.729Z,2.70
2022-09-06T07:24:08.285Z,2.95
2022-09-06T07:26:37.496Z,2.75
2022-09-06T07:29:06.126Z,3.40
2022-09-06T07:34:20.924Z,2.85
2022-09-06T07:36:48.397Z,3.03
2022-09-06T07:39:15.236Z,3.30
2022-09-06T07:41:43.271Z,3.03
2022-09-06T07:44:10.413Z,3.17
2022-09-06T07:46:37.221Z,2.72
2022-09-06T07:49:05.751Z,2.60
2022-09-06T07:51:33.151Z,2.97
2022-09-06T07:54:29.448Z,2.50
2022-09-06T07:56:47.530Z,2.47
2022-09-06T07:59:14.534Z,2.38
2022-09-06T08:01:41.817Z,3.28
2022-09-06T08:04:13.921Z,2.55
2022-09-06T08:09:36.661Z,2.53
2022-09-06T08:12:07.284Z,2.05
2022-09-06T08:14:34.950Z,2.22
2022-09-06T08:17:02.732Z,2.70
2022-09-06T08:19:29.567Z,2.70
2022-09-06T08:21:56.366Z,2.85
2022-09-06T08:24:23.345Z,2.10
2022-09-06T08:26:50.197Z,2.85
2022-09-06T08:29:17.068Z,3.00
2022-09-06T08:31:45.803Z,1.90
2022-09-06T08:34:14.168Z,2.50
2022-09-06T08:36:41.876Z,2.25
2022-09-06T08:39:09.984Z,2.03
2022-09-06T08:41:56.600Z,2.33
2022-09-06T08:47:18.161Z,2.35
2022-09-06T08:49:52.740Z,2.00
2022-09-06T08:52:31.533Z,2.45
2022-09-06T08:55:24.002Z,2.50
2022-09-06T08:57:57.999Z,2.55
2022-09-06T09:00:25.173Z,2.58
2022-09-06T09:03:16.865Z,2.45
2022-09-06T09:05:46.999Z,2.08
2022-09-06T09:08:24.282Z,2.72
2022-09-06T09:10:58.956Z,2.05
2022-09-06T09:13:38.600Z,3.75
2022-09-06T09:16:06.318Z,2.30
2022-09-06T09:18:38.424Z,2.42
2022-09-06T09:21:05.416Z,3.28
2022-09-06T09:23:32.620Z,3.28
2022-09-06T09:26:10.352Z,3.00
2022-09-06T09:28:37.102Z,3.20
2022-09-06T09:31:04.724Z,3.08
2022-09-06T09:33:38.951Z,3.22
2022-09-06T09:36:09.614Z,3.00
2022-09-06T09:38:49.209Z,3.45
2022-09-06T09:41:32.511Z,4.57
2022-09-06T09:44:05.007Z,3.95
2022-09-06T09:46:34.815Z,3.55
2022-09-06T09:49:34.893Z,4.78
2022-09-06T09:52:11.535Z,4.05
2022-09-06T09:54:42.155Z,5.38
2022-09-06T09:57:17.192Z,3.78
2022-09-06T10:00:01.081Z,4.53
2022-09-06T10:02:39.025Z,4.20
2022-09-06T10:05:12.155Z,4.20
2022-09-06T10:07:58.584Z,4.80
2022-09-06T10:10:26.692Z,5.40
2022-09-06T10:13:20.244Z,5.22
2022-09-06T10:15:47.823Z,4.60
2022-09-06T10:18:20.439Z,4.55
2022-09-06T10:21:02.055Z,3.70
2022-09-06T10:26:59.069Z,3.67
2022-09-06T10:29:38.755Z,3.90
2022-09-06T10:32:10.101Z,4.68
2022-09-06T10:34:43.550Z,4.60
2022-09-06T10:37:13.299Z,5.15
2022-09-06T10:39:56.967Z,5.35
2022-09-06T10:42:42.350Z,4.13
2022-09-06T10:45:29.055Z,5.18
2022-09-06T10:48:14.458Z,4.95
2022-09-06T10:50:50.569Z,5.28
2022-09-06T10:53:27.505Z,4.57
2022-09-06T10:56:15.546Z,4.28
2022-09-06T11:02:16.109Z,5.40
2022-09-06T11:07:37.965Z,4.03
2022-09-06T11:10:21.373Z,3.60
2022-09-06T11:13:03.462Z,5.18
2022-09-06T11:15:55.769Z,4.40
2022-09-06T11:18:51.724Z,4.18
2022-09-06T11:21:46.675Z,4.53
2022-09-06T11:24:30.630Z,4.07
2022-09-06T11:27:32.767Z,3.88
2022-09-06T11:30:01.916Z,3.63
2022-09-06T11:32:41.147Z,3.53
2022-09-06T11:35:11.135Z,3.67
2022-09-06T11:37:44.635Z,3.40
2022-09-06T11:42:51.930Z,2.97
2022-09-06T11:45:21.935Z,3.80
2022-09-06T11:47:51.613Z,3.08
2022-09-06T11:50:21.342Z,2.97
2022-09-06T11:53:04.257Z,3.88
2022-09-06T11:55:43.322Z,2.58
2022-09-06T11:58:42.201Z,4.20
2022-09-06T12:01:18.777Z,2.92
2022-09-06T12:04:05.216Z,2.90
2022-09-06T12:06:42.780Z,3.65
2022-09-06T12:09:30.096Z,3.63
2022-09-06T12:11:58.705Z,2.60
2022-09-06T12:14:36.884Z,3.38
2022-09-06T12:17:05.037Z,2.47
2022-09-06T12:19:49.975Z,3.25
2022-09-06T12:22:29.351Z,3.03
2022-09-06T12:25:16.814Z,4.03
2022-09-06T12:30:39.190Z,3.50
2022-09-06T12:33:17.199Z,2.53
2022-09-06T12:36:00.513Z,2.80
2022-09-06T12:38:28.446Z,2.55
2022-09-06T12:40:58.963Z,2.95
2022-09-06T12:43:26.860Z,3.05
2022-09-06T12:45:53.773Z,2.53
2022-09-06T12:48:29.984Z,3.15
2022-09-06T12:51:16.145Z,3.33
2022-09-06T12:53:52.507Z,4.47
2022-09-06T12:56:24.330Z,3.53
2022-09-06T12:58:51.542Z,3.25
2022-09-06T13:01:29.159Z,3.35
2022-09-06T13:04:18.955Z,3.47
2022-09-06T13:06:47.354Z,3.50
2022-09-06T13:09:18.410Z,3.42
2022-09-06T13:11:48.729Z,3.58
2022-09-06T13:14:29.465Z,3.50
2022-09-06T13:16:59.941Z,3.75
2022-09-06T13:19:41.935Z,3.30
2022-09-06T13:22:11.085Z,3.88
2022-09-06T13:24:47.129Z,4.22
2022-09-06T13:27:35.669Z,4.47
2022-09-06T13:30:08.910Z,4.38
2022-09-06T13:32:37.244Z,5.43
2022-09-06T13:35:04.512Z,3.92
2022-09-06T13:37:33.840Z,3.80
2022-09-06T13:40:04.965Z,4.25
2022-09-06T13:42:33.995Z,4.95
2022-09-06T13:45:26.890Z,4.53
2022-09-06T13:48:03.389Z,4.60
2022-09-06T13:50:41.879Z,5.07
2022-09-06T13:53:08.601Z,5.13
2022-09-06T13:55:35.296Z,5.53
2022-09-06T13:58:02.029Z,4.80
2022-09-06T14:00:28.834Z,4.72
2022-09-06T14:02:55.817Z,6.57
2022-09-06T14:05:22.742Z,5.00
2022-09-06T14:07:49.491Z,4.88
2022-09-06T14:10:16.439Z,4.00
2022-09-06T14:12:43.243Z,4.85
2022-09-06T14:15:09.951Z,4.45
2022-09-06T14:17:36.973Z,5.25
2022-09-06T14:20:04.201Z,4.65
2022-09-06T14:22:31.003Z,4.80
2022-09-06T14:24:57.743Z,3.28
2022-09-06T14:27:24.606Z,3.50
2022-09-06T14:29:51.316Z,3.22
2022-09-06T14:32:22.381Z,3.20
2022-09-06T14:34:49.483Z,3.45
2022-09-06T14:37:16.357Z,2.92
2022-09-06T14:39:43.170Z,3.03
2022-09-06T14:42:09.937Z,3.75
2022-09-06T14:44:36.716Z,2.45
2022-09-06T14:47:03.589Z,2.35
2022-09-06T14:49:30.522Z,3.10
2022-09-06T14:51:57.271Z,2.70
2022-09-06T14:54:29.010Z,3.28
2022-09-06T14:56:56.365Z,2.78
2022-09-06T14:59:23.072Z,3.08
2022-09-06T15:01:49.830Z,2.92
2022-09-06T15:04:16.637Z,2.45
2022-09-06T15:06:46.917Z,2.80
2022-09-06T15:09:15.520Z,2.80
2022-09-06T15:11:45.634Z,2.78
2022-09-06T15:14:14.183Z,3.25
2022-09-06T15:16:41.150Z,2.88
2022-09-06T15:19:08.802Z,3.47
2022-09-06T15:21:36.158Z,3.85
2022-09-06T15:24:04.436Z,3.65
2022-09-06T15:26:34.892Z,3.25
2022-09-06T15:29:04.644Z,3.60
2022-09-06T15:31:34.182Z,4.00
2022-09-06T15:34:02.700Z,4.65
2022-09-06T15:36:29.853Z,3.80
2022-09-06T15:39:01.043Z,4.35
2022-09-06T15:41:30.989Z,3.97
2022-09-06T15:44:02.366Z,4.00
2022-09-06T15:46:35.097Z,5.63
2022-09-06T15:49:04.130Z,4.15
2022-09-06T15:51:32.961Z,3.83
2022-09-06T15:54:00.003Z,4.60
2022-09-06T15:56:27.197Z,3.92
2022-09-06T15:58:54.015Z,3.17
2022-09-06T16:01:23.001Z,3.53
2022-09-06T16:03:55.677Z,3.50
2022-09-06T16:09:01.630Z,3.70
2022-09-06T16:11:29.994Z,3.90
2022-09-06T16:13:56.824Z,4.00
2022-09-06T16:16:25.314Z,4.20
2022-09-06T16:18:52.256Z,4.80
2022-09-06T16:21:21.445Z,4.47
2022-09-06T16:23:56.523Z,4.68
2022-09-06T16:26:24.845Z,3.58
2022-09-06T16:28:52.800Z,4.28
2022-09-06T16:31:21.236Z,5.25
2022-09-06T16:33:49.016Z,5.15
2022-09-06T16:36:16.909Z,4.72
2022-09-06T16:38:43.780Z,4.63
2022-09-06T16:41:15.814Z,4.78
2022-09-06T16:43:43.504Z,5.20
2022-09-06T16:46:11.121Z,3.95
2022-09-06T16:48:40.450Z,4.43
2022-09-06T16:51:16.461Z,3.58
2022-09-06T16:53:46.392Z,4.40
2022-09-06T16:56:15.610Z,5.15
2022-09-06T16:58:44.090Z,3.47
2022-09-06T17:01:11.190Z,4.35
2022-09-06T17:03:39.058Z,4.45
2022-09-06T17:06:07.705Z,4.05
2022-09-06T17:08:36.269Z,4.82
2022-09-06T17:11:09.487Z,5.85
2022-09-06T17:13:36.894Z,6.18
2022-09-06T17:16:23.356Z,5.93
2022-09-06T17:18:53.493Z,5.38
2022-09-06T17:21:22.140Z,5.85
2022-09-06T17:23:50.021Z,5.40
2022-09-06T17:26:21.866Z,6.65
2022-09-06T17:28:50.158Z,5.60
2022-09-06T17:31:23.547Z,5.70
2022-09-06T17:33:52.457Z,5.80
2022-09-06T17:36:25.347Z,7.53
2022-09-06T17:38:53.973Z,9.68
2022-09-06T17:41:24.485Z,8.43
2022-09-06T17:43:55.555Z,8.60
2022-09-06T17:46:28.535Z,9.93
2022-09-06T17:48:56.227Z,9.27
2022-09-06T17:51:23.177Z,11.48
2022-09-06T17:53:50.583Z,12.32
2022-09-06T17:56:18.399Z,11.07
2022-09-06T17:58:59.280Z,9.55
2022-09-06T18:01:29.547Z,11.00
2022-09-06T18:03:57.308Z,12.68
2022-09-06T18:06:25.926Z,13.15
2022-09-06T18:08:54.999Z,8.52
2022-09-06T18:11:27.857Z,13.00
2022-09-06T18:13:59.084Z,10.82
2022-09-06T18:16:27.803Z,11.50
2022-09-06T18:18:57.472Z,13.07
2022-09-06T18:21:26.171Z,10.57
2022-09-06T18:23:53.807Z,10.57
2022-09-06T18:26:20.738Z,11.02
2022-09-06T18:28:47.800Z,11.43
2022-09-06T18:31:20.051Z,8.23
2022-09-06T18:33:47.281Z,8.57
2022-09-06T18:36:15.466Z,7.75
2022-09-06T18:38:43.018Z,7.30
2022-09-06T18:41:31.601Z,7.43
2022-09-06T18:44:02.687Z,7.30
2022-09-06T18:46:36.013Z,7.10
2022-09-06T18:49:02.889Z,7.63
2022-09-06T18:51:29.916Z,8.02
2022-09-06T18:53:59.309Z,7.68
2022-09-06T18:56:27.280Z,7.07
2022-09-06T18:58:58.049Z,7.43
2022-09-06T19:01:26.692Z,8.05
2022-09-06T19:03:53.555Z,5.97
2022-09-06T19:06:21.516Z,5.38
2022-09-06T19:08:49.130Z,5.65
2022-09-06T19:11:18.169Z,5.93
2022-09-06T19:13:46.937Z,8.25
2022-09-06T19:16:14.235Z,5.88
2022-09-06T19:18:41.840Z,7.28
2022-09-06T19:21:14.423Z,6.97
2022-09-06T19:23:44.715Z,6.40
2022-09-06T19:26:20.406Z,5.22
2022-09-06T19:28:52.925Z,4.43
2022-09-06T19:31:20.224Z,5.63
2022-09-06T19:33:48.885Z,4.95
2022-09-06T19:36:16.961Z,5.25
2022-09-06T19:39:03.685Z,4.70
2022-09-06T19:41:33.025Z,5.82
2022-09-06T19:44:00.389Z,4.88
2022-09-06T19:46:27.553Z,4.68
2022-09-06T19:48:58.739Z,5.32
2022-09-06T19:51:25.937Z,5.00
2022-09-06T19:53:57.476Z,5.40
2022-09-06T19:56:27.180Z,4.32
2022-09-06T19:58:58.840Z,4.10
2022-09-06T20:01:29.245Z,4.47
2022-09-06T20:03:56.853Z,3.42
2022-09-06T20:06:23.958Z,4.40
2022-09-06T20:08:56.033Z,4.78
2022-09-06T20:11:25.479Z,3.72
2022-09-06T20:13:52.408Z,4.07
2022-09-06T20:16:20.981Z,4.00
2022-09-06T20:18:48.354Z,3.33
2022-09-06T20:21:15.225Z,3.88
2022-09-06T20:23:42.256Z,4.18
2022-09-06T20:26:11.617Z,4.63
2022-09-06T20:28:38.336Z,4.50
2022-09-06T20:33:33.804Z,4.18
2022-09-06T20:36:03.001Z,5.70
2022-09-06T20:38:37.263Z,4.15
2022-09-06T20:41:06.810Z,4.53
2022-09-06T20:43:36.463Z,4.50
2022-09-06T20:46:06.375Z,3.97
2022-09-06T20:48:34.325Z,3.60
2022-09-06T20:51:04.122Z,3.47
2022-09-06T20:53:34.481Z,3.15
2022-09-06T20:56:03.767Z,3.72
2022-09-06T20:58:31.895Z,3.55
2022-09-06T21:00:59.798Z,3.42
2022-09-06T21:03:26.997Z,5.35
2022-09-06T21:05:54.153Z,3.67
2022-09-06T21:08:21.504Z,3.53
2022-09-06T21:10:48.195Z,6.70
2022-09-06T21:13:15.009Z,6.85
2022-09-06T21:15:41.744Z,10.73
2022-09-06T21:18:09.384Z,10.25
2022-09-06T21:20:36.243Z,12.45
2022-09-06T21:23:03.426Z,11.23
2022-09-06T21:25:30.299Z,12.70
2022-09-06T21:27:57.173Z,12.95
2022-09-06T21:30:24.077Z,11.38
2022-09-06T21:32:53.883Z,11.77
2022-09-06T21:35:20.645Z,8.95
2022-09-06T21:37:47.377Z,9.60
2022-09-06T21:42:40.749Z,11.27
2022-09-06T21:45:07.810Z,8.43
2022-09-06T21:47:34.495Z,9.10
2022-09-06T21:52:32.276Z,8.40
2022-09-06T21:54:59.345Z,7.93
2022-09-06T21:57:26.006Z,8.13
2022-09-06T22:02:20.336Z,9.88
2022-09-06T22:04:47.244Z,10.20
2022-09-06T22:07:13.903Z,12.30
2022-09-06T22:12:07.447Z,8.93
2022-09-06T22:14:34.137Z,8.88
2022-09-06T22:19:27.438Z,10.32
2022-09-06T22:24:21.178Z,8.27
2022-09-06T22:26:47.898Z,5.90
2022-09-06T22:31:42.809Z,3.70
2022-09-06T22:34:10.483Z,3.35
2022-09-06T22:36:37.233Z,2.72
2022-09-06T22:39:04.059Z,2.80
2022-09-06T22:41:32.539Z,3.30
2022-09-06T22:44:00.664Z,2.47
2022-09-06T22:46:27.890Z,2.38
2022-09-06T22:48:55.382Z,2.40
2022-09-06T22:51:22.159Z,2.90
2022-09-06T22:53:48.882Z,2.28
2022-09-06T22:56:16.069Z,2.40
2022-09-06T22:58:42.804Z,2.70
2022-09-06T23:01:13.144Z,3.38
2022-09-06T23:03:41.738Z,4.38
2022-09-06T23:06:09.063Z,5.03
2022-09-06T23:08:37.784Z,3.53
2022-09-06T23:11:10.634Z,4.68
2022-09-06T23:13:37.814Z,4.18
2022-09-06T23:16:10.692Z,4.30
2022-09-06T23:18:37.734Z,3.97
2022-09-06T23:21:09.415Z,3.00
2022-09-06T23:23:38.171Z,3.33
2022-09-06T23:26:10.963Z,3.60
2022-09-06T23:28:38.351Z,3.72
2022-09-06T23:31:07.263Z,2.92
2022-09-06T23:33:37.394Z,3.78
2022-09-06T23:36:09.109Z,3.13
2022-09-06T23:38:37.594Z,3.55
2022-09-06T23:41:05.231Z,3.40
2022-09-06T23:43:32.062Z,3.35
2022-09-06T23:45:58.788Z,3.25
2022-09-06T23:48:25.862Z,3.28
2022-09-06T23:50:52.859Z,3.33
2022-09-06T23:53:19.700Z,2.83
2022-09-06T23:55:46.622Z,2.80
2022-09-06T23:58:13.354Z,2.60
